createdAt,value
2022-10-03T00:08:09.663Z,11.88
2022-10-03T00:18:29.920Z,10.15
2022-10-03T00:28:56.195Z,10.53
2022-10-03T00:39:22.848Z,9.02
2022-10-03T00:50:04.200Z,9.27
2022-10-03T01:00:19.987Z,8.50
2022-10-03T01:10:33.617Z,9.10
2022-10-03T01:20:45.931Z,9.07
2022-10-03T01:30:54.726Z,7.57
2022-10-03T01:41:03.428Z,8.55
2022-10-03T01:51:17.069Z,8.15
2022-10-03T02:01:26.339Z,6.75
2022-10-03T02:11:39.556Z,8.30
2022-10-03T02:21:50.288Z,6.63
2022-10-03T02:32:16.423Z,7.07
2022-10-03T02:42:39.356Z,6.15
2022-10-03T02:53:23.810Z,6.88
2022-10-03T03:03:47.511Z,6.53
2022-10-03T03:14:24.587Z,5.20
2022-10-03T03:24:41.969Z,4.72
2022-10-03T03:34:59.711Z,4.80
2022-10-03T03:45:32.643Z,4.10
2022-10-03T03:56:16.116Z,4.35
2022-10-03T04:06:39.297Z,5.25
2022-10-03T04:17:32.404Z,4.38
2022-10-03T04:28:18.555Z,4.03
2022-10-03T04:38:40.331Z,7.07
2022-10-03T04:48:52.021Z,6.20
2022-10-03T04:59:05.044Z,5.15
2022-10-03T05:09:23.516Z,3.67
2022-10-03T05:19:47.406Z,3.67
2022-10-03T05:30:00.123Z,3.75
2022-10-03T05:40:18.658Z,4.78
2022-10-03T05:50:52.353Z,4.20
2022-10-03T06:01:20.219Z,3.88
2022-10-03T06:12:10.431Z,3.75
2022-10-03T06:23:12.278Z,3.67
2022-10-03T06:34:03.115Z,4.15
2022-10-03T06:44:41.006Z,3.33
2022-10-03T06:55:19.075Z,2.95
2022-10-03T07:06:03.442Z,2.70
2022-10-03T07:16:27.238Z,2.17
2022-10-03T07:27:10.083Z,3.15
2022-10-03T07:38:12.443Z,3.92
2022-10-03T07:48:58.681Z,2.20
2022-10-03T07:59:33.847Z,1.52
2022-10-03T08:10:04.876Z,2.65
2022-10-03T08:20:29.815Z,1.85
2022-10-03T08:30:57.559Z,1.95
2022-10-03T08:41:32.572Z,1.73
2022-10-03T08:52:11.651Z,1.35
2022-10-03T09:03:31.523Z,1.73
2022-10-03T09:14:05.726Z,1.40
2022-10-03T09:24:38.278Z,1.75
2022-10-03T09:35:12.349Z,2.30
2022-10-03T09:45:53.826Z,1.77
2022-10-03T09:56:46.991Z,1.98
2022-10-03T10:07:55.640Z,1.83
2022-10-03T10:18:35.367Z,1.98
2022-10-03T10:29:23.824Z,2.00
2022-10-03T10:40:13.552Z,2.72
2022-10-03T10:51:05.471Z,2.85
2022-10-03T11:01:47.243Z,2.22
2022-10-03T11:12:38.395Z,1.95
2022-10-03T11:23:17.375Z,2.38
2022-10-03T11:33:57.539Z,1.98
2022-10-03T11:44:15.862Z,2.07
2022-10-03T11:54:32.581Z,2.65
2022-10-03T12:05:02.166Z,3.08
2022-10-03T12:15:27.617Z,2.58
2022-10-03T12:25:37.157Z,1.67
2022-10-03T12:45:59.932Z,2.97
2022-10-03T12:56:15.644Z,2.08
2022-10-03T13:07:04.397Z,2.10
2022-10-03T13:17:26.772Z,1.75
2022-10-03T13:28:06.033Z,2.85
2022-10-03T13:38:40.141Z,3.20
2022-10-03T13:49:01.029Z,3.35
2022-10-03T13:59:19.564Z,2.53
2022-10-03T14:09:43.596Z,1.95
2022-10-03T14:20:05.608Z,3.00
2022-10-03T14:30:14.442Z,2.90
2022-10-03T14:40:31.663Z,2.80
2022-10-03T14:50:40.455Z,2.90
2022-10-03T15:00:48.310Z,3.22
2022-10-03T15:11:06.630Z,2.22
2022-10-03T15:21:18.437Z,1.98
2022-10-03T15:32:32.760Z,3.00
2022-10-03T15:43:04.556Z,2.88
2022-10-03T16:14:50.373Z,2.00
2022-10-03T16:25:07.240Z,2.40
2022-10-03T16:35:35.914Z,2.97
2022-10-03T16:45:48.314Z,2.13
2022-10-03T16:56:00.595Z,2.78
2022-10-03T17:06:19.247Z,1.73
2022-10-03T17:16:40.635Z,3.25
2022-10-03T17:26:47.682Z,1.50
2022-10-03T17:37:14.536Z,2.40
2022-10-03T17:47:27.718Z,3.08
2022-10-03T17:57:39.829Z,1.73
2022-10-03T18:07:50.551Z,2.25
2022-10-03T18:18:18.622Z,2.03
2022-10-03T18:28:31.714Z,1.20
2022-10-03T18:38:48.795Z,2.83
2022-10-03T18:49:33.591Z,1.55
2022-10-03T19:00:47.249Z,2.20
2022-10-03T19:21:57.534Z,1.70
2022-10-03T19:32:07.485Z,0.45
2022-10-03T19:42:47.363Z,0.70
2022-10-03T19:52:54.850Z,0.63
2022-10-03T20:14:05.894Z,0.50
2022-10-03T20:24:36.299Z,0.60
2022-10-03T20:34:52.976Z,0.52
2022-10-03T20:45:09.197Z,0.85
2022-10-03T20:55:23.343Z,2.08
2022-10-03T21:05:35.064Z,1.15
2022-10-03T21:15:53.551Z,0.60
2022-10-03T21:26:14.894Z,1.27
2022-10-03T21:36:25.714Z,0.75
2022-10-03T21:46:39.063Z,0.50
2022-10-03T21:57:01.503Z,0.60
2022-10-03T22:07:15.842Z,0.40
2022-10-03T22:17:31.989Z,0.85
2022-10-03T22:27:48.447Z,0.80
2022-10-03T22:37:55.351Z,1.10
2022-10-03T22:48:01.302Z,1.02
2022-10-03T22:58:09.836Z,1.20
2022-10-03T23:08:35.076Z,0.70
2022-10-03T23:19:14.533Z,0.90
2022-10-03T23:29:21.317Z,0.88
2022-10-03T23:39:37.729Z,1.10
2022-10-03T23:49:49.444Z,0.82
